createdAt,value
2022-12-15T00:02:18.420Z,-2.10
2022-12-15T00:05:03.919Z,-2.10
2022-12-15T00:07:49.524Z,-2.10
2022-12-15T00:10:35.188Z,-2.20
2022-12-15T00:13:20.761Z,-2.20
2022-12-15T00:16:06.393Z,-2.20
2022-12-15T00:18:51.771Z,-2.20
2022-12-15T00:21:37.356Z,-2.20
2022-12-15T00:24:23.052Z,-2.30
2022-12-15T00:27:08.479Z,-2.30
2022-12-15T00:29:53.981Z,-2.30
2022-12-15T00:32:39.520Z,-2.30
2022-12-15T00:35:24.867Z,-2.40
2022-12-15T00:38:10.580Z,-2.40
2022-12-15T00:40:37.422Z,-2.40
2022-12-15T00:43:04.279Z,-2.50
2022-12-15T00:46:09.824Z,-2.50
2022-12-15T00:48:36.812Z,-2.50
2022-12-15T00:51:03.681Z,-2.50
2022-12-15T00:53:49.085Z,-2.50
2022-12-15T00:56:34.432Z,-2.60
2022-12-15T00:59:20.021Z,-2.70
2022-12-15T01:04:58.928Z,-2.80
2022-12-15T01:07:44.626Z,-2.80
2022-12-15T01:10:35.599Z,-2.90
2022-12-15T01:13:21.224Z,-2.90
2022-12-15T01:16:06.367Z,-2.90
2022-12-15T01:18:52.496Z,-2.90
2022-12-15T01:21:24.345Z,-3.00
2022-12-15T01:23:52.031Z,-3.00
2022-12-15T01:26:18.857Z,-3.10
2022-12-15T01:28:45.688Z,-3.10
2022-12-15T01:34:24.158Z,-3.20
2022-12-15T01:40:10.699Z,-3.30
2022-12-15T01:42:37.530Z,-3.40
2022-12-15T01:45:22.852Z,-3.50
2022-12-15T01:47:57.463Z,-3.50
2022-12-15T01:50:24.602Z,-3.50
2022-12-15T01:56:04.491Z,-3.60
2022-12-15T01:58:31.371Z,-3.60
2022-12-15T02:00:58.406Z,-3.70
2022-12-15T02:03:25.420Z,-3.70
2022-12-15T02:05:52.394Z,-3.60
2022-12-15T02:08:19.203Z,-3.60
2022-12-15T02:11:18.619Z,-3.60
2022-12-15T02:14:04.633Z,-3.70
2022-12-15T02:16:45.074Z,-3.70
2022-12-15T02:19:23.982Z,-3.80
2022-12-15T02:21:56.564Z,-3.80
2022-12-15T02:24:26.120Z,-3.90
2022-12-15T02:27:04.825Z,-3.90
2022-12-15T02:29:45.339Z,-3.90
2022-12-15T02:32:15.358Z,-3.90
2022-12-15T02:35:00.484Z,-3.90
2022-12-15T02:37:31.881Z,-3.90
2022-12-15T02:39:58.788Z,-3.90
2022-12-15T02:42:25.838Z,-4.00
2022-12-15T02:44:54.099Z,-4.00
2022-12-15T02:47:20.894Z,-4.10
2022-12-15T02:50:10.615Z,-4.10
2022-12-15T02:52:44.668Z,-4.20
2022-12-15T02:55:13.511Z,-4.10
2022-12-15T02:57:59.464Z,-4.10
2022-12-15T03:00:26.312Z,-4.10
2022-12-15T03:02:53.659Z,-4.20
2022-12-15T03:05:20.868Z,-4.20
2022-12-15T03:07:51.271Z,-4.20
2022-12-15T03:10:18.140Z,-4.30
2022-12-15T03:12:45.360Z,-4.30
2022-12-15T03:15:12.194Z,-4.30
2022-12-15T03:17:39.276Z,-4.30
2022-12-15T03:20:06.318Z,-4.30
2022-12-15T03:22:33.214Z,-4.30
2022-12-15T03:25:00.022Z,-4.30
2022-12-15T03:27:26.932Z,-4.30
2022-12-15T03:29:53.758Z,-4.30
2022-12-15T03:32:20.751Z,-4.20
2022-12-15T03:34:47.696Z,-4.20
2022-12-15T03:37:14.599Z,-4.30
2022-12-15T03:39:41.392Z,-4.30
2022-12-15T03:42:08.220Z,-4.30
2022-12-15T03:44:35.047Z,-4.40
2022-12-15T03:47:03.838Z,-4.50
2022-12-15T03:49:30.854Z,-4.50
2022-12-15T03:51:57.713Z,-4.50
2022-12-15T03:54:24.535Z,-4.50
2022-12-15T03:56:51.532Z,-4.50
2022-12-15T03:59:19.309Z,-4.50
2022-12-15T04:01:47.385Z,-4.60
2022-12-15T04:04:14.289Z,-4.70
2022-12-15T04:06:41.126Z,-4.70
2022-12-15T04:09:07.967Z,-4.80
2022-12-15T04:11:34.807Z,-4.80
2022-12-15T04:14:01.663Z,-4.80
2022-12-15T04:16:28.645Z,-4.80
2022-12-15T04:19:13.964Z,-4.80
2022-12-15T04:21:40.925Z,-4.80
2022-12-15T04:24:26.504Z,-4.80
2022-12-15T04:27:12.056Z,-4.80
2022-12-15T04:29:57.870Z,-4.80
2022-12-15T04:32:43.477Z,-4.80
2022-12-15T04:35:29.620Z,-4.80
2022-12-15T04:38:15.206Z,-4.80
2022-12-15T04:41:00.774Z,-4.80
2022-12-15T04:43:46.383Z,-4.90
2022-12-15T04:46:31.988Z,-5.00
2022-12-15T04:49:17.636Z,-5.00
2022-12-15T04:52:03.283Z,-5.00
2022-12-15T04:54:49.402Z,-5.00
2022-12-15T04:57:35.027Z,-4.90
2022-12-15T05:00:20.630Z,-4.90
2022-12-15T05:03:06.817Z,-4.90
2022-12-15T05:05:52.558Z,-5.00
2022-12-15T05:08:38.095Z,-5.00
2022-12-15T05:11:23.795Z,-5.10
2022-12-15T05:14:09.371Z,-5.10
2022-12-15T05:16:55.170Z,-5.20
2022-12-15T05:19:40.847Z,-5.20
2022-12-15T05:22:26.317Z,-5.10
2022-12-15T05:25:12.033Z,-5.10
2022-12-15T05:27:57.863Z,-5.10
2022-12-15T05:30:43.495Z,-5.10
2022-12-15T05:33:10.397Z,-5.10
2022-12-15T05:35:37.223Z,-5.20
2022-12-15T05:38:04.965Z,-5.30
2022-12-15T05:40:31.833Z,-5.30
2022-12-15T05:42:59.339Z,-5.40
2022-12-15T05:45:26.564Z,-5.40
2022-12-15T05:47:53.604Z,-5.40
2022-12-15T05:50:20.629Z,-5.40
2022-12-15T05:52:49.460Z,-5.40
2022-12-15T05:55:17.076Z,-5.40
2022-12-15T05:57:43.920Z,-5.30
2022-12-15T06:00:10.951Z,-5.30
2022-12-15T06:02:40.325Z,-5.30
2022-12-15T06:05:07.633Z,-5.30
2022-12-15T06:07:34.551Z,-5.30
2022-12-15T06:10:01.436Z,-5.40
2022-12-15T06:12:28.667Z,-5.50
2022-12-15T06:14:55.559Z,-5.50
2022-12-15T06:17:22.440Z,-5.40
2022-12-15T06:19:49.256Z,-5.40
2022-12-15T06:22:16.079Z,-5.50
2022-12-15T06:24:42.956Z,-5.40
2022-12-15T06:27:09.807Z,-5.40
2022-12-15T06:29:36.682Z,-5.50
2022-12-15T06:32:04.567Z,-5.40
2022-12-15T06:34:31.509Z,-5.40
2022-12-15T06:36:58.329Z,-5.40
2022-12-15T06:39:25.238Z,-5.50
2022-12-15T06:41:52.056Z,-5.50
2022-12-15T06:44:19.180Z,-5.50
2022-12-15T06:46:46.601Z,-5.50
2022-12-15T06:49:14.016Z,-5.50
2022-12-15T06:51:41.735Z,-5.50
2022-12-15T06:54:09.145Z,-5.60
2022-12-15T06:56:39.094Z,-5.50
2022-12-15T06:59:06.271Z,-5.60
2022-12-15T07:01:33.593Z,-5.50
2022-12-15T07:04:01.792Z,-5.60
2022-12-15T07:06:30.452Z,-5.60
2022-12-15T07:08:57.399Z,-5.70
2022-12-15T07:11:24.412Z,-5.70
2022-12-15T07:13:51.547Z,-5.70
2022-12-15T07:16:18.659Z,-5.70
2022-12-15T07:18:45.621Z,-5.60
2022-12-15T07:21:12.645Z,-5.70
2022-12-15T07:23:54.199Z,-5.70
2022-12-15T07:26:22.484Z,-5.60
2022-12-15T07:28:49.421Z,-5.70
2022-12-15T07:31:16.461Z,-5.70
2022-12-15T07:33:43.373Z,-5.70
2022-12-15T07:36:11.158Z,-5.60
2022-12-15T07:38:37.999Z,-5.70
2022-12-15T07:41:05.483Z,-5.70
2022-12-15T07:43:33.076Z,-5.70
2022-12-15T07:46:01.235Z,-5.80
2022-12-15T07:48:28.107Z,-5.80
2022-12-15T07:51:05.005Z,-5.80
2022-12-15T07:53:35.934Z,-5.80
2022-12-15T07:56:08.504Z,-5.90
2022-12-15T07:58:36.431Z,-5.80
2022-12-15T08:01:04.231Z,-5.80
2022-12-15T08:03:31.629Z,-5.80
2022-12-15T08:06:03.779Z,-5.90
2022-12-15T08:08:31.729Z,-5.90
2022-12-15T08:14:16.996Z,-5.80
2022-12-15T08:16:45.453Z,-5.80
2022-12-15T08:19:13.030Z,-5.90
2022-12-15T08:21:40.465Z,-5.90
2022-12-15T08:24:08.190Z,-5.90
2022-12-15T08:26:35.085Z,-5.80
2022-12-15T08:29:31.958Z,-5.80
2022-12-15T08:31:50.888Z,-5.90
2022-12-15T08:34:17.742Z,-5.90
2022-12-15T08:36:44.563Z,-5.80
2022-12-15T08:39:11.393Z,-5.80
2022-12-15T08:41:38.312Z,-5.80
2022-12-15T08:44:05.190Z,-5.80
2022-12-15T08:46:33.853Z,-5.80
2022-12-15T08:49:01.041Z,-5.80
2022-12-15T08:51:28.425Z,-5.80
2022-12-15T08:53:55.541Z,-5.80
2022-12-15T08:56:22.559Z,-5.70
2022-12-15T08:58:49.859Z,-5.70
2022-12-15T09:01:22.829Z,-5.60
2022-12-15T09:03:50.996Z,-5.60
2022-12-15T09:06:18.390Z,-5.50
2022-12-15T09:08:45.221Z,-5.50
2022-12-15T09:11:17.287Z,-5.40
2022-12-15T09:16:56.925Z,-5.30
2022-12-15T09:19:23.853Z,-5.20
2022-12-15T09:21:50.746Z,-5.20
2022-12-15T09:24:25.868Z,-5.10
2022-12-15T09:26:56.417Z,-5.00
2022-12-15T09:29:23.246Z,-5.00
2022-12-15T09:31:50.257Z,-4.90
2022-12-15T09:34:17.150Z,-4.90
2022-12-15T09:36:44.245Z,-4.80
2022-12-15T09:39:12.172Z,-4.80
2022-12-15T09:41:39.278Z,-4.70
2022-12-15T09:44:18.389Z,-4.60
2022-12-15T09:46:51.110Z,-4.60
2022-12-15T09:49:23.965Z,-4.50
2022-12-15T09:51:56.192Z,-4.30
2022-12-15T09:54:23.018Z,-4.30
2022-12-15T09:56:51.772Z,-4.20
2022-12-15T09:59:18.733Z,-4.20
2022-12-15T10:01:52.635Z,-4.10
2022-12-15T10:04:32.765Z,-4.10
2022-12-15T10:07:03.699Z,-4.00
2022-12-15T10:09:30.649Z,-3.90
2022-12-15T10:11:58.885Z,-3.90
2022-12-15T10:14:52.082Z,-3.80
2022-12-15T10:17:29.731Z,-3.80
2022-12-15T10:20:06.442Z,-3.70
2022-12-15T10:22:34.278Z,-3.70
2022-12-15T10:25:11.148Z,-3.60
2022-12-15T10:27:57.241Z,-3.50
2022-12-15T10:30:24.706Z,-3.40
2022-12-15T10:32:56.290Z,-3.40
2022-12-15T10:35:27.707Z,-3.30
2022-12-15T10:41:11.038Z,-3.20
2022-12-15T10:43:38.862Z,-3.10
2022-12-15T10:46:09.383Z,-3.10
2022-12-15T10:48:36.646Z,-3.00
2022-12-15T10:51:15.717Z,-2.90
2022-12-15T10:56:59.017Z,-2.80
2022-12-15T10:59:30.872Z,-2.70
2022-12-15T11:02:22.819Z,-2.70
2022-12-15T11:04:57.013Z,-2.60
2022-12-15T11:07:24.077Z,-2.60
2022-12-15T11:09:51.041Z,-2.50
2022-12-15T11:12:36.891Z,-2.50
2022-12-15T11:15:09.014Z,-2.40
2022-12-15T11:17:40.859Z,-2.30
2022-12-15T11:20:11.235Z,-2.30
2022-12-15T11:22:46.744Z,-2.20
2022-12-15T11:25:29.443Z,-2.10
2022-12-15T11:27:57.032Z,-2.10
2022-12-15T11:30:29.633Z,-2.10
2022-12-15T11:32:58.302Z,-2.00
2022-12-15T11:35:54.660Z,-1.90
2022-12-15T11:38:24.713Z,-1.90
2022-12-15T11:40:52.253Z,-1.70
2022-12-15T11:43:21.903Z,-1.70
2022-12-15T11:45:48.815Z,-1.60
2022-12-15T11:48:21.873Z,-1.60
2022-12-15T11:51:06.407Z,-1.50
2022-12-15T11:53:36.548Z,-1.40
2022-12-15T11:56:06.314Z,-1.40
2022-12-15T11:58:36.474Z,-1.30
2022-12-15T12:01:10.142Z,-1.30
2022-12-15T12:03:55.264Z,-1.30
2022-12-15T12:06:27.798Z,-1.30
2022-12-15T12:08:54.816Z,-1.20
2022-12-15T12:11:28.231Z,-1.20
2022-12-15T12:14:11.712Z,-1.20
2022-12-15T12:16:38.853Z,-1.20
2022-12-15T12:22:22.250Z,-1.10
2022-12-15T12:24:50.873Z,-1.10
2022-12-15T12:27:23.114Z,-1.10
2022-12-15T12:29:53.311Z,-1.10
2022-12-15T12:32:40.487Z,-1.10
2022-12-15T12:38:12.624Z,-1.00
2022-12-15T12:40:58.840Z,-0.90
2022-12-15T12:43:33.789Z,-0.90
2022-12-15T12:46:03.823Z,-0.90
2022-12-15T12:48:36.427Z,-0.80
2022-12-15T12:51:22.182Z,-0.80
2022-12-15T12:53:49.022Z,-0.80
2022-12-15T12:56:35.726Z,-0.70
2022-12-15T12:59:07.912Z,-0.70
2022-12-15T13:01:35.520Z,-0.70
2022-12-15T13:04:06.748Z,-0.60
2022-12-15T13:06:36.730Z,-0.50
2022-12-15T13:09:21.671Z,-0.50
2022-12-15T13:11:48.981Z,-0.60
2022-12-15T13:14:22.559Z,-0.60
2022-12-15T13:17:24.852Z,-0.60
2022-12-15T13:20:00.893Z,-0.60
2022-12-15T13:22:34.209Z,-0.60
2022-12-15T13:25:01.460Z,-0.60
2022-12-15T13:27:38.211Z,-0.60
2022-12-15T13:30:08.209Z,-0.60
2022-12-15T13:32:35.748Z,-0.50
2022-12-15T13:35:14.611Z,-0.50
2022-12-15T13:37:53.328Z,-0.40
2022-12-15T13:40:22.879Z,-0.40
2022-12-15T13:43:18.839Z,-0.40
2022-12-15T13:45:52.379Z,-0.30
2022-12-15T13:48:19.389Z,-0.30
2022-12-15T13:50:51.538Z,-0.30
2022-12-15T13:53:20.417Z,-0.40
2022-12-15T13:55:59.208Z,-0.40
2022-12-15T13:58:26.010Z,-0.40
2022-12-15T14:00:53.711Z,-0.40
2022-12-15T14:03:20.649Z,-0.40
2022-12-15T14:05:51.335Z,-0.40
2022-12-15T14:08:18.703Z,-0.30
2022-12-15T14:10:51.254Z,-0.40
2022-12-15T14:13:18.589Z,-0.30
2022-12-15T14:15:46.375Z,-0.30
2022-12-15T14:18:25.011Z,-0.30
2022-12-15T14:20:51.869Z,-0.20
2022-12-15T14:23:22.047Z,-0.30
2022-12-15T14:25:52.499Z,-0.30
2022-12-15T14:28:26.161Z,-0.30
2022-12-15T14:30:53.132Z,-0.30
2022-12-15T14:36:32.407Z,-0.40
2022-12-15T14:39:00.127Z,-0.40
2022-12-15T14:41:31.130Z,-0.50
2022-12-15T14:46:55.181Z,-0.60
2022-12-15T14:49:26.623Z,-0.70
2022-12-15T14:51:54.133Z,-0.70
2022-12-15T14:54:32.347Z,-0.70
2022-12-15T14:57:01.718Z,-0.70
2022-12-15T14:59:33.569Z,-0.80
2022-12-15T15:02:11.238Z,-0.90
2022-12-15T15:03:09.371Z,-0.50
2022-12-15T15:04:38.281Z,-0.90
2022-12-15T15:07:06.170Z,-1.00
2022-12-15T15:09:34.275Z,-1.00
2022-12-15T15:12:02.603Z,-1.10
2022-12-15T15:14:48.589Z,-1.10
2022-12-15T15:17:17.025Z,-1.20
2022-12-15T15:19:50.925Z,-1.20
2022-12-15T15:22:20.803Z,-1.20
2022-12-15T15:24:50.308Z,-1.20
2022-12-15T15:27:23.313Z,-1.20
2022-12-15T15:29:50.207Z,-1.30
2022-12-15T15:32:17.088Z,-1.30
2022-12-15T15:34:45.086Z,-1.30
2022-12-15T15:37:18.192Z,-1.40
2022-12-15T15:39:45.689Z,-1.40
2022-12-15T15:42:13.367Z,-1.50
2022-12-15T15:44:40.558Z,-1.50
2022-12-15T15:47:07.670Z,-1.50
2022-12-15T15:49:37.889Z,-1.60
2022-12-15T15:52:06.405Z,-1.60
2022-12-15T15:54:33.996Z,-1.70
2022-12-15T15:57:00.803Z,-1.70
2022-12-15T15:59:29.036Z,-1.80
2022-12-15T16:01:56.283Z,-1.80
2022-12-15T16:04:26.592Z,-1.80
2022-12-15T16:06:53.479Z,-1.90
2022-12-15T16:09:20.373Z,-1.90
2022-12-15T16:11:47.269Z,-2.00
2022-12-15T16:14:14.634Z,-2.00
2022-12-15T16:16:45.960Z,-2.00
2022-12-15T16:19:12.974Z,-2.10
2022-12-15T16:21:39.991Z,-2.10
2022-12-15T16:24:16.738Z,-2.10
2022-12-15T16:26:47.265Z,-2.10
2022-12-15T16:29:19.170Z,-2.20
2022-12-15T16:31:46.687Z,-2.20
2022-12-15T16:34:14.075Z,-2.30
2022-12-15T16:36:40.941Z,-2.30
2022-12-15T16:39:36.877Z,-2.30
2022-12-15T16:42:04.190Z,-2.30
2022-12-15T16:44:31.130Z,-2.30
2022-12-15T16:46:58.973Z,-2.30
2022-12-15T16:49:27.724Z,-2.30
2022-12-15T16:51:55.064Z,-2.30
2022-12-15T16:54:25.932Z,-2.40
2022-12-15T16:56:56.941Z,-2.40
2022-12-15T16:59:33.441Z,-2.40
2022-12-15T17:02:01.157Z,-2.40
2022-12-15T17:04:28.165Z,-2.40
2022-12-15T17:06:55.042Z,-2.40
2022-12-15T17:09:22.515Z,-2.50
2022-12-15T17:11:49.325Z,-2.50
2022-12-15T17:14:16.365Z,-2.50
2022-12-15T17:16:43.449Z,-2.50
2022-12-15T17:19:10.287Z,-2.50
2022-12-15T17:21:47.711Z,-2.50
2022-12-15T17:24:15.369Z,-2.50
2022-12-15T17:26:42.304Z,-2.60
2022-12-15T17:29:16.204Z,-2.60
2022-12-15T17:31:43.049Z,-2.60
2022-12-15T17:34:23.292Z,-2.60
2022-12-15T17:36:50.106Z,-2.60
2022-12-15T17:39:16.901Z,-2.60
2022-12-15T17:41:59.450Z,-2.60
2022-12-15T17:44:36.811Z,-2.60
2022-12-15T17:47:05.683Z,-2.60
2022-12-15T17:49:36.043Z,-2.70
2022-12-15T17:52:05.295Z,-2.70
2022-12-15T17:54:32.064Z,-2.70
2022-12-15T17:56:58.877Z,-2.70
2022-12-15T17:59:25.634Z,-2.70
2022-12-15T18:01:52.716Z,-2.70
2022-12-15T18:04:19.816Z,-2.70
2022-12-15T18:06:46.813Z,-2.70
2022-12-15T18:09:14.596Z,-2.70
2022-12-15T18:11:43.236Z,-2.70
2022-12-15T18:14:12.549Z,-2.70
2022-12-15T18:16:39.392Z,-2.70
2022-12-15T18:19:06.571Z,-2.70
2022-12-15T18:21:33.345Z,-2.70
2022-12-15T18:24:00.220Z,-2.70
2022-12-15T18:26:27.118Z,-2.70
2022-12-15T18:28:54.022Z,-2.60
2022-12-15T18:31:20.891Z,-2.60
2022-12-15T18:33:47.779Z,-2.60
2022-12-15T18:36:16.228Z,-2.60
2022-12-15T18:38:43.123Z,-2.60
2022-12-15T18:44:24.254Z,-2.50
2022-12-15T18:46:51.063Z,-2.50
2022-12-15T18:49:18.829Z,-2.50
2022-12-15T18:51:46.669Z,-2.50
2022-12-15T18:54:20.458Z,-2.50
2022-12-15T18:56:47.353Z,-2.50
2022-12-15T18:59:17.448Z,-2.50
2022-12-15T19:01:45.770Z,-2.50
2022-12-15T19:04:12.724Z,-2.50
2022-12-15T19:06:40.513Z,-2.50
2022-12-15T19:09:14.583Z,-2.50
2022-12-15T19:12:01.340Z,-2.50
2022-12-15T19:14:40.649Z,-2.50
2022-12-15T19:17:28.681Z,-2.50
2022-12-15T19:20:14.085Z,-2.50
2022-12-15T19:22:40.953Z,-2.40
2022-12-15T19:25:10.100Z,-2.40
2022-12-15T19:27:36.993Z,-2.40
2022-12-15T19:30:06.074Z,-2.40
2022-12-15T19:32:32.902Z,-2.50
2022-12-15T19:35:00.956Z,-2.50
2022-12-15T19:37:28.493Z,-2.50
2022-12-15T19:39:55.729Z,-2.50
2022-12-15T19:42:28.513Z,-2.50
2022-12-15T19:44:55.357Z,-2.60
2022-12-15T19:47:22.145Z,-2.60
2022-12-15T19:49:48.928Z,-2.60
2022-12-15T19:52:18.650Z,-2.60
2022-12-15T19:54:46.664Z,-2.60
2022-12-15T19:57:14.392Z,-2.60
2022-12-15T19:59:41.223Z,-2.50
2022-12-15T20:02:14.541Z,-2.50
2022-12-15T20:04:41.390Z,-2.40
2022-12-15T20:07:09.469Z,-2.30
2022-12-15T20:09:36.276Z,-2.20
2022-12-15T20:12:03.100Z,-2.10
2022-12-15T20:14:30.339Z,-2.00
2022-12-15T20:16:57.275Z,-2.00
2022-12-15T20:19:24.133Z,-1.90
2022-12-15T20:21:51.533Z,-1.80
2022-12-15T20:24:18.874Z,-1.70
2022-12-15T20:26:45.680Z,-1.60
2022-12-15T20:29:23.370Z,-1.60
2022-12-15T20:31:50.319Z,-1.50
2022-12-15T20:34:17.336Z,-1.50
2022-12-15T20:36:44.118Z,-1.50
2022-12-15T20:39:31.295Z,-1.40
2022-12-15T20:41:58.144Z,-1.40
2022-12-15T20:44:24.959Z,-1.40
2022-12-15T20:46:51.781Z,-1.40
2022-12-15T20:49:19.947Z,-1.50
2022-12-15T20:51:47.099Z,-1.40
2022-12-15T20:54:14.994Z,-1.40
2022-12-15T20:56:42.781Z,-1.50
2022-12-15T20:59:09.694Z,-1.50
2022-12-15T21:01:36.672Z,-1.50
2022-12-15T21:04:04.969Z,-1.50
2022-12-15T21:06:31.711Z,-1.40
2022-12-15T21:08:58.528Z,-1.40
2022-12-15T21:11:25.286Z,-1.40
2022-12-15T21:13:52.694Z,-1.40
2022-12-15T21:16:21.150Z,-1.30
2022-12-15T21:21:35.926Z,-1.40
2022-12-15T21:24:07.888Z,-1.40
2022-12-15T21:26:34.698Z,-1.40
2022-12-15T21:29:01.501Z,-1.40
2022-12-15T21:31:28.374Z,-1.40
2022-12-15T21:33:55.445Z,-1.40
2022-12-15T21:36:22.367Z,-1.40
2022-12-15T21:38:49.576Z,-1.40
2022-12-15T21:41:19.437Z,-1.30
2022-12-15T21:43:46.456Z,-1.30
2022-12-15T21:46:15.062Z,-1.30
2022-12-15T21:49:00.733Z,-1.30
2022-12-15T21:51:29.045Z,-1.20
2022-12-15T21:53:55.837Z,-1.30
2022-12-15T21:56:22.708Z,-1.30
2022-12-15T21:58:52.628Z,-1.30
2022-12-15T22:01:23.171Z,-1.30
2022-12-15T22:03:54.560Z,-1.30
2022-12-15T22:06:26.415Z,-1.30
2022-12-15T22:08:53.736Z,-1.20
2022-12-15T22:11:24.294Z,-1.30
2022-12-15T22:13:51.395Z,-1.20
2022-12-15T22:16:19.401Z,-1.30
2022-12-15T22:18:47.718Z,-1.20
2022-12-15T22:21:14.606Z,-1.20
2022-12-15T22:23:41.449Z,-1.20
2022-12-15T22:26:09.815Z,-1.20
2022-12-15T22:28:36.719Z,-1.20
2022-12-15T22:31:03.867Z,-1.10
2022-12-15T22:33:31.784Z,-1.10
2022-12-15T22:35:59.072Z,-1.10
2022-12-15T22:38:25.869Z,-1.10
2022-12-15T22:40:55.422Z,-1.20
2022-12-15T22:43:22.404Z,-1.10
2022-12-15T22:45:49.519Z,-1.10
2022-12-15T22:48:16.344Z,-1.10
2022-12-15T22:50:43.160Z,-1.10
2022-12-15T22:56:08.857Z,-1.10
2022-12-15T22:58:37.161Z,-1.10
2022-12-15T23:01:03.963Z,-1.10
2022-12-15T23:03:31.195Z,-1.10
2022-12-15T23:05:58.713Z,-1.10
2022-12-15T23:11:38.368Z,-1.20
2022-12-15T23:14:05.787Z,-1.20
2022-12-15T23:16:32.736Z,-1.20
2022-12-15T23:18:59.754Z,-1.20
2022-12-15T23:21:26.615Z,-1.20
2022-12-15T23:23:53.544Z,-1.30
2022-12-15T23:26:23.150Z,-1.20
2022-12-15T23:28:50.087Z,-1.30
2022-12-15T23:31:17.558Z,-1.30
2022-12-15T23:33:44.625Z,-1.30
2022-12-15T23:36:12.190Z,-1.30
2022-12-15T23:38:39.001Z,-1.30
2022-12-15T23:41:05.885Z,-1.40
2022-12-15T23:43:33.565Z,-1.40
2022-12-15T23:46:01.736Z,-1.40
2022-12-15T23:48:29.665Z,-1.50
2022-12-15T23:50:56.586Z,-1.50
2022-12-15T23:53:24.918Z,-1.50
2022-12-15T23:55:51.711Z,-1.50
2022-12-15T23:58:18.577Z,-1.50
